sensor_id;sensor_type;location;lat;lon;timestamp;temperature;humidity
32839;DHT22;19182;41.820;12.808;2023-03-14T00:00:15;11.00;99.90
32839;DHT22;19182;41.820;12.808;2023-03-14T00:02:41;11.00;99.90
32839;DHT22;19182;41.820;12.808;2023-03-14T00:05:08;10.90;99.90
32839;DHT22;19182;41.820;12.808;2023-03-14T00:07:38;10.90;99.90
32839;DHT22;19182;41.820;12.808;2023-03-14T00:10:07;10.80;99.90
32839;DHT22;19182;41.820;12.808;2023-03-14T00:12:33;10.80;99.90
32839;DHT22;19182;41.820;12.808;2023-03-14T00:14:59;10.80;99.90
32839;DHT22;19182;41.820;12.808;2023-03-14T00:17:30;10.80;99.90
32839;DHT22;19182;41.820;12.808;2023-03-14T00:19:56;10.70;99.90
32839;DHT22;19182;41.820;12.808;2023-03-14T00:22:22;10.60;99.90
32839;DHT22;19182;41.820;12.808;2023-03-14T00:24:48;10.70;99.90
32839;DHT22;19182;41.820;12.808;2023-03-14T00:27:14;10.60;99.90
32839;DHT22;19182;41.820;12.808;2023-03-14T00:29:39;10.60;99.90
32839;DHT22;19182;41.820;12.808;2023-03-14T00:32:05;10.60;99.90
32839;DHT22;19182;41.820;12.808;2023-03-14T00:34:32;10.50;99.90
32839;DHT22;19182;41.820;12.808;2023-03-14T00:36:58;10.60;99.90
32839;DHT22;19182;41.820;12.808;2023-03-14T00:39:23;10.50;99.90
32839;DHT22;19182;41.820;12.808;2023-03-14T00:41:49;10.40;99.90
32839;DHT22;19182;41.820;12.808;2023-03-14T00:44:15;10.50;99.90
32839;DHT22;19182;41.820;12.808;2023-03-14T00:46:40;10.40;99.90
32839;DHT22;19182;41.820;12.808;2023-03-14T00:49:06;10.40;99.90
32839;DHT22;19182;41.820;12.808;2023-03-14T00:51:31;10.50;99.90
32839;DHT22;19182;41.820;12.808;2023-03-14T00:53:57;10.40;99.90
32839;DHT22;19182;41.820;12.808;2023-03-14T00:56:23;10.40;99.90
32839;DHT22;19182;41.820;12.808;2023-03-14T00:58:55;10.40;99.90
32839;DHT22;19182;41.820;12.808;2023-03-14T01:01:21;10.80;99.90
32839;DHT22;19182;41.820;12.808;2023-03-14T01:03:54;10.30;99.90
32839;DHT22;19182;41.820;12.808;2023-03-14T01:06:22;10.30;99.90
32839;DHT22;19182;41.820;12.808;2023-03-14T01:08:51;10.30;99.90
32839;DHT22;19182;41.820;12.808;2023-03-14T01:11:26;10.30;99.90
32839;DHT22;19182;41.820;12.808;2023-03-14T01:13:56;10.20;99.90
32839;DHT22;19182;41.820;12.808;2023-03-14T01:16:23;10.20;99.90
32839;DHT22;19182;41.820;12.808;2023-03-14T01:18:55;10.20;99.90
32839;DHT22;19182;41.820;12.808;2023-03-14T01:21:24;10.30;99.90
32839;DHT22;19182;41.820;12.808;2023-03-14T01:24:03;10.30;99.90
32839;DHT22;19182;41.820;12.808;2023-03-14T01:26:31;10.20;99.90
32839;DHT22;19182;41.820;12.808;2023-03-14T01:28:58;10.10;99.90
32839;DHT22;19182;41.820;12.808;2023-03-14T01:31:25;10.00;99.90
32839;DHT22;19182;41.820;12.808;2023-03-14T01:33:52;10.10;99.90
32839;DHT22;19182;41.820;12.808;2023-03-14T01:36:24;10.10;99.90
32839;DHT22;19182;41.820;12.808;2023-03-14T01:38:50;10.00;99.90
32839;DHT22;19182;41.820;12.808;2023-03-14T01:41:19;10.10;99.90
32839;DHT22;19182;41.820;12.808;2023-03-14T01:43:58;10.00;99.90
32839;DHT22;19182;41.820;12.808;2023-03-14T01:54:44;10.10;99.90
32839;DHT22;19182;41.820;12.808;2023-03-14T01:57:21;10.00;99.90
32839;DHT22;19182;41.820;12.808;2023-03-14T02:00:10;10.10;99.90
32839;DHT22;19182;41.820;12.808;2023-03-14T02:02:38;10.10;99.90
32839;DHT22;19182;41.820;12.808;2023-03-14T02:05:06;10.10;99.90
32839;DHT22;19182;41.820;12.808;2023-03-14T02:07:51;10.10;99.90
32839;DHT22;19182;41.820;12.808;2023-03-14T02:10:19;10.10;99.90
32839;DHT22;19182;41.820;12.808;2023-03-14T02:12:48;10.00;99.90
32839;DHT22;19182;41.820;12.808;2023-03-14T02:15:17;10.10;99.90
32839;DHT22;19182;41.820;12.808;2023-03-14T02:17:48;10.00;99.90
32839;DHT22;19182;41.820;12.808;2023-03-14T02:20:50;9.90;99.90
32839;DHT22;19182;41.820;12.808;2023-03-14T02:23:44;10.00;99.90
32839;DHT22;19182;41.820;12.808;2023-03-14T02:26:21;10.00;99.90
32839;DHT22;19182;41.820;12.808;2023-03-14T02:28:50;9.90;99.90
32839;DHT22;19182;41.820;12.808;2023-03-14T02:31:25;9.90;99.90
32839;DHT22;19182;41.820;12.808;2023-03-14T02:33:51;9.90;99.90
32839;DHT22;19182;41.820;12.808;2023-03-14T02:36:18;10.00;99.90
32839;DHT22;19182;41.820;12.808;2023-03-14T02:38:55;9.80;99.90
32839;DHT22;19182;41.820;12.808;2023-03-14T02:41:25;9.90;99.90
32839;DHT22;19182;41.820;12.808;2023-03-14T02:43:51;9.90;99.90
32839;DHT22;19182;41.820;12.808;2023-03-14T02:46:19;9.90;99.90
32839;DHT22;19182;41.820;12.808;2023-03-14T02:48:49;9.90;99.90
32839;DHT22;19182;41.820;12.808;2023-03-14T02:51:34;9.90;99.90
32839;DHT22;19182;41.820;12.808;2023-03-14T02:54:00;9.90;99.90
32839;DHT22;19182;41.820;12.808;2023-03-14T02:56:27;9.90;99.90
32839;DHT22;19182;41.820;12.808;2023-03-14T02:58:52;9.90;99.90
32839;DHT22;19182;41.820;12.808;2023-03-14T03:01:19;9.90;99.90
32839;DHT22;19182;41.820;12.808;2023-03-14T03:03:44;9.90;99.90
32839;DHT22;19182;41.820;12.808;2023-03-14T03:06:11;9.80;99.90
32839;DHT22;19182;41.820;12.808;2023-03-14T03:08:37;9.90;99.90
32839;DHT22;19182;41.820;12.808;2023-03-14T03:11:14;9.80;99.90
32839;DHT22;19182;41.820;12.808;2023-03-14T03:13:40;9.80;99.90
32839;DHT22;19182;41.820;12.808;2023-03-14T03:16:07;9.80;99.90
32839;DHT22;19182;41.820;12.808;2023-03-14T03:18:34;9.80;99.90
32839;DHT22;19182;41.820;12.808;2023-03-14T03:21:04;9.80;99.90
32839;DHT22;19182;41.820;12.808;2023-03-14T03:23:31;9.80;99.90
32839;DHT22;19182;41.820;12.808;2023-03-14T03:26:02;9.80;99.90
32839;DHT22;19182;41.820;12.808;2023-03-14T03:28:29;9.80;99.90
32839;DHT22;19182;41.820;12.808;2023-03-14T03:30:54;9.70;99.90
32839;DHT22;19182;41.820;12.808;2023-03-14T03:33:23;9.70;99.90
32839;DHT22;19182;41.820;12.808;2023-03-14T03:35:50;9.80;99.90
32839;DHT22;19182;41.820;12.808;2023-03-14T03:38:17;9.70;99.90
32839;DHT22;19182;41.820;12.808;2023-03-14T03:40:43;9.60;99.90
32839;DHT22;19182;41.820;12.808;2023-03-14T03:43:08;9.70;99.90
32839;DHT22;19182;41.820;12.808;2023-03-14T03:45:35;9.70;99.90
32839;DHT22;19182;41.820;12.808;2023-03-14T03:48:01;9.70;99.90
32839;DHT22;19182;41.820;12.808;2023-03-14T03:50:27;9.70;99.90
32839;DHT22;19182;41.820;12.808;2023-03-14T03:52:53;9.80;99.90
32839;DHT22;19182;41.820;12.808;2023-03-14T03:55:19;9.70;99.90
32839;DHT22;19182;41.820;12.808;2023-03-14T03:57:46;9.70;99.90
32839;DHT22;19182;41.820;12.808;2023-03-14T04:00:14;9.60;99.90
32839;DHT22;19182;41.820;12.808;2023-03-14T04:02:40;11.90;99.90
32839;DHT22;19182;41.820;12.808;2023-03-14T04:05:07;9.60;99.90
32839;DHT22;19182;41.820;12.808;2023-03-14T04:07:33;9.60;99.90
32839;DHT22;19182;41.820;12.808;2023-03-14T04:09:59;9.60;99.90
32839;DHT22;19182;41.820;12.808;2023-03-14T04:12:28;9.60;99.90
32839;DHT22;19182;41.820;12.808;2023-03-14T04:14:54;9.50;99.90
32839;DHT22;19182;41.820;12.808;2023-03-14T04:17:20;9.60;99.90
32839;DHT22;19182;41.820;12.808;2023-03-14T04:19:46;9.60;99.90
32839;DHT22;19182;41.820;12.808;2023-03-14T04:22:15;9.60;99.90
32839;DHT22;19182;41.820;12.808;2023-03-14T04:24:40;9.60;99.90
32839;DHT22;19182;41.820;12.808;2023-03-14T04:27:06;9.50;99.90
32839;DHT22;19182;41.820;12.808;2023-03-14T04:29:32;9.50;99.90
32839;DHT22;19182;41.820;12.808;2023-03-14T04:31:59;9.50;99.90
32839;DHT22;19182;41.820;12.808;2023-03-14T04:34:25;9.50;99.90
32839;DHT22;19182;41.820;12.808;2023-03-14T04:36:51;9.50;99.90
32839;DHT22;19182;41.820;12.808;2023-03-14T04:39:18;9.50;99.90
32839;DHT22;19182;41.820;12.808;2023-03-14T04:41:44;9.50;99.90
32839;DHT22;19182;41.820;12.808;2023-03-14T04:44:11;9.40;99.90
32839;DHT22;19182;41.820;12.808;2023-03-14T04:46:37;9.40;99.90
32839;DHT22;19182;41.820;12.808;2023-03-14T04:49:03;9.50;99.90
32839;DHT22;19182;41.820;12.808;2023-03-14T04:51:29;9.60;99.90
32839;DHT22;19182;41.820;12.808;2023-03-14T04:53:56;9.50;99.90
32839;DHT22;19182;41.820;12.808;2023-03-14T04:56:22;9.50;99.90
32839;DHT22;19182;41.820;12.808;2023-03-14T04:58:53;9.50;99.90
32839;DHT22;19182;41.820;12.808;2023-03-14T05:01:19;9.50;99.90
32839;DHT22;19182;41.820;12.808;2023-03-14T05:03:45;9.50;99.90
32839;DHT22;19182;41.820;12.808;2023-03-14T05:06:12;9.50;99.90
32839;DHT22;19182;41.820;12.808;2023-03-14T05:08:37;9.50;99.90
32839;DHT22;19182;41.820;12.808;2023-03-14T05:11:03;9.60;99.90
32839;DHT22;19182;41.820;12.808;2023-03-14T05:13:29;9.50;99.90
32839;DHT22;19182;41.820;12.808;2023-03-14T05:16:05;9.50;99.90
32839;DHT22;19182;41.820;12.808;2023-03-14T05:18:31;9.50;99.90
32839;DHT22;19182;41.820;12.808;2023-03-14T05:20:57;9.50;99.90
32839;DHT22;19182;41.820;12.808;2023-03-14T05:23:23;9.40;99.90
32839;DHT22;19182;41.820;12.808;2023-03-14T05:25:50;9.40;99.90
32839;DHT22;19182;41.820;12.808;2023-03-14T05:28:16;9.40;99.90
32839;DHT22;19182;41.820;12.808;2023-03-14T05:30:41;9.40;99.90
32839;DHT22;19182;41.820;12.808;2023-03-14T05:33:08;9.20;99.90
32839;DHT22;19182;41.820;12.808;2023-03-14T05:35:42;9.30;99.90
32839;DHT22;19182;41.820;12.808;2023-03-14T05:38:29;9.30;99.90
32839;DHT22;19182;41.820;12.808;2023-03-14T05:40:55;9.20;99.90
32839;DHT22;19182;41.820;12.808;2023-03-14T05:43:23;9.20;99.90
32839;DHT22;19182;41.820;12.808;2023-03-14T05:45:50;9.30;99.90
32839;DHT22;19182;41.820;12.808;2023-03-14T05:48:16;8.40;99.90
32839;DHT22;19182;41.820;12.808;2023-03-14T05:50:42;9.30;99.90
32839;DHT22;19182;41.820;12.808;2023-03-14T05:53:08;9.30;99.90
32839;DHT22;19182;41.820;12.808;2023-03-14T05:55:34;9.30;99.90
32839;DHT22;19182;41.820;12.808;2023-03-14T05:58:00;9.40;99.90
32839;DHT22;19182;41.820;12.808;2023-03-14T06:00:27;9.40;99.90
32839;DHT22;19182;41.820;12.808;2023-03-14T06:02:53;9.40;99.90
32839;DHT22;19182;41.820;12.808;2023-03-14T06:05:19;9.50;99.90
32839;DHT22;19182;41.820;12.808;2023-03-14T06:07:45;9.50;99.90
32839;DHT22;19182;41.820;12.808;2023-03-14T06:10:11;9.60;99.90
32839;DHT22;19182;41.820;12.808;2023-03-14T06:12:37;9.80;99.90
32839;DHT22;19182;41.820;12.808;2023-03-14T06:15:03;9.80;99.90
32839;DHT22;19182;41.820;12.808;2023-03-14T06:17:30;9.80;99.90
32839;DHT22;19182;41.820;12.808;2023-03-14T06:19:56;9.80;99.90
32839;DHT22;19182;41.820;12.808;2023-03-14T06:22:21;9.90;99.90
32839;DHT22;19182;41.820;12.808;2023-03-14T06:24:47;10.00;99.90
32839;DHT22;19182;41.820;12.808;2023-03-14T06:27:14;10.10;99.90
32839;DHT22;19182;41.820;12.808;2023-03-14T06:29:40;10.20;99.90
32839;DHT22;19182;41.820;12.808;2023-03-14T06:32:07;10.30;99.90
32839;DHT22;19182;41.820;12.808;2023-03-14T06:34:33;10.40;99.90
32839;DHT22;19182;41.820;12.808;2023-03-14T06:37:02;10.40;99.90
32839;DHT22;19182;41.820;12.808;2023-03-14T06:39:29;10.40;99.90
32839;DHT22;19182;41.820;12.808;2023-03-14T06:41:55;10.40;99.90
32839;DHT22;19182;41.820;12.808;2023-03-14T06:44:20;10.40;99.90
32839;DHT22;19182;41.820;12.808;2023-03-14T06:46:46;10.40;99.90
32839;DHT22;19182;41.820;12.808;2023-03-14T06:49:11;10.40;99.90
32839;DHT22;19182;41.820;12.808;2023-03-14T06:51:38;10.50;99.90
32839;DHT22;19182;41.820;12.808;2023-03-14T06:54:05;10.40;99.90
32839;DHT22;19182;41.820;12.808;2023-03-14T06:56:32;10.50;99.90
32839;DHT22;19182;41.820;12.808;2023-03-14T06:58:58;10.60;99.90
32839;DHT22;19182;41.820;12.808;2023-03-14T07:01:27;10.60;99.90
32839;DHT22;19182;41.820;12.808;2023-03-14T07:03:55;10.60;99.90
32839;DHT22;19182;41.820;12.808;2023-03-14T07:06:21;10.50;99.90
32839;DHT22;19182;41.820;12.808;2023-03-14T07:08:47;10.70;99.90
32839;DHT22;19182;41.820;12.808;2023-03-14T07:11:13;10.70;99.90
32839;DHT22;19182;41.820;12.808;2023-03-14T07:13:42;10.70;99.90
32839;DHT22;19182;41.820;12.808;2023-03-14T07:16:09;11.50;99.90
32839;DHT22;19182;41.820;12.808;2023-03-14T07:18:35;11.00;99.90
32839;DHT22;19182;41.820;12.808;2023-03-14T07:21:03;11.10;99.90
32839;DHT22;19182;41.820;12.808;2023-03-14T07:23:29;11.20;99.90
32839;DHT22;19182;41.820;12.808;2023-03-14T07:25:56;11.40;99.90
32839;DHT22;19182;41.820;12.808;2023-03-14T07:28:25;11.80;99.90
32839;DHT22;19182;41.820;12.808;2023-03-14T07:30:52;12.10;99.90
32839;DHT22;19182;41.820;12.808;2023-03-14T07:33:20;12.70;99.90
32839;DHT22;19182;41.820;12.808;2023-03-14T07:35:49;13.00;99.90
32839;DHT22;19182;41.820;12.808;2023-03-14T07:38:16;11.90;99.90
32839;DHT22;19182;41.820;12.808;2023-03-14T07:40:43;13.20;99.90
32839;DHT22;19182;41.820;12.808;2023-03-14T07:43:09;13.00;99.90
32839;DHT22;19182;41.820;12.808;2023-03-14T07:45:40;13.30;99.90
32839;DHT22;19182;41.820;12.808;2023-03-14T07:48:06;13.60;99.90
32839;DHT22;19182;41.820;12.808;2023-03-14T07:50:32;14.00;99.90
32839;DHT22;19182;41.820;12.808;2023-03-14T07:52:59;14.70;99.90
32839;DHT22;19182;41.820;12.808;2023-03-14T07:55:25;14.80;99.90
32839;DHT22;19182;41.820;12.808;2023-03-14T07:57:51;14.70;99.90
32839;DHT22;19182;41.820;12.808;2023-03-14T08:00:18;14.30;99.90
32839;DHT22;19182;41.820;12.808;2023-03-14T08:02:45;13.80;99.90
32839;DHT22;19182;41.820;12.808;2023-03-14T08:05:10;13.80;99.90
32839;DHT22;19182;41.820;12.808;2023-03-14T08:07:37;13.90;99.90
32839;DHT22;19182;41.820;12.808;2023-03-14T08:10:05;13.80;99.90
32839;DHT22;19182;41.820;12.808;2023-03-14T08:12:31;13.80;99.90
32839;DHT22;19182;41.820;12.808;2023-03-14T08:15:05;13.80;99.90
32839;DHT22;19182;41.820;12.808;2023-03-14T08:17:32;13.80;99.90
32839;DHT22;19182;41.820;12.808;2023-03-14T08:19:58;14.00;99.90
32839;DHT22;19182;41.820;12.808;2023-03-14T08:22:24;14.10;99.90
32839;DHT22;19182;41.820;12.808;2023-03-14T08:24:51;14.10;99.90
32839;DHT22;19182;41.820;12.808;2023-03-14T08:27:18;13.80;99.90
32839;DHT22;19182;41.820;12.808;2023-03-14T08:29:45;13.60;99.90
32839;DHT22;19182;41.820;12.808;2023-03-14T08:32:12;13.60;99.90
32839;DHT22;19182;41.820;12.808;2023-03-14T08:34:39;13.40;99.90
32839;DHT22;19182;41.820;12.808;2023-03-14T08:37:06;13.60;99.90
32839;DHT22;19182;41.820;12.808;2023-03-14T08:39:31;14.00;99.90
32839;DHT22;19182;41.820;12.808;2023-03-14T08:41:58;14.30;99.90
32839;DHT22;19182;41.820;12.808;2023-03-14T08:44:24;14.60;99.90
32839;DHT22;19182;41.820;12.808;2023-03-14T08:46:50;14.60;99.90
32839;DHT22;19182;41.820;12.808;2023-03-14T08:49:16;14.60;99.90
32839;DHT22;19182;41.820;12.808;2023-03-14T08:51:42;15.00;99.90
32839;DHT22;19182;41.820;12.808;2023-03-14T08:54:11;15.30;99.90
32839;DHT22;19182;41.820;12.808;2023-03-14T08:56:36;15.30;99.90
32839;DHT22;19182;41.820;12.808;2023-03-14T08:59:03;15.60;99.90
32839;DHT22;19182;41.820;12.808;2023-03-14T09:01:29;16.20;99.90
32839;DHT22;19182;41.820;12.808;2023-03-14T09:03:56;16.20;99.90
32839;DHT22;19182;41.820;12.808;2023-03-14T09:06:22;16.30;99.90
32839;DHT22;19182;41.820;12.808;2023-03-14T09:08:49;16.60;99.90
32839;DHT22;19182;41.820;12.808;2023-03-14T09:22:56;20.70;99.90
32839;DHT22;19182;41.820;12.808;2023-03-14T09:25:23;16.30;99.90
32839;DHT22;19182;41.820;12.808;2023-03-14T09:27:50;16.40;99.90
32839;DHT22;19182;41.820;12.808;2023-03-14T09:30:16;16.50;99.90
32839;DHT22;19182;41.820;12.808;2023-03-14T09:32:43;16.50;99.90
32839;DHT22;19182;41.820;12.808;2023-03-14T09:35:09;16.50;99.90
32839;DHT22;19182;41.820;12.808;2023-03-14T09:37:35;16.60;99.90
32839;DHT22;19182;41.820;12.808;2023-03-14T09:40:01;16.80;99.90
32839;DHT22;19182;41.820;12.808;2023-03-14T09:42:34;16.60;99.90
32839;DHT22;19182;41.820;12.808;2023-03-14T09:45:05;15.50;99.90
32839;DHT22;19182;41.820;12.808;2023-03-14T09:47:33;15.40;99.90
32839;DHT22;19182;41.820;12.808;2023-03-14T09:50:03;15.50;99.90
32839;DHT22;19182;41.820;12.808;2023-03-14T09:52:36;15.40;99.90
32839;DHT22;19182;41.820;12.808;2023-03-14T09:55:11;15.20;99.90
32839;DHT22;19182;41.820;12.808;2023-03-14T09:57:39;15.10;99.90
32839;DHT22;19182;41.820;12.808;2023-03-14T10:00:18;15.10;99.90
32839;DHT22;19182;41.820;12.808;2023-03-14T10:05:42;15.10;99.90
32839;DHT22;19182;41.820;12.808;2023-03-14T10:08:13;15.10;99.90
32839;DHT22;19182;41.820;12.808;2023-03-14T10:10:39;14.90;99.90
32839;DHT22;19182;41.820;12.808;2023-03-14T10:13:17;14.90;99.90
32839;DHT22;19182;41.820;12.808;2023-03-14T10:15:52;14.90;99.90
32839;DHT22;19182;41.820;12.808;2023-03-14T10:18:18;14.70;99.90
32839;DHT22;19182;41.820;12.808;2023-03-14T10:20:48;14.70;99.90
32839;DHT22;19182;41.820;12.808;2023-03-14T10:25:58;14.60;99.90
32839;DHT22;19182;41.820;12.808;2023-03-14T10:28:31;14.70;99.90
32839;DHT22;19182;41.820;12.808;2023-03-14T10:30:58;14.90;99.90
32839;DHT22;19182;41.820;12.808;2023-03-14T10:33:33;14.70;99.90
32839;DHT22;19182;41.820;12.808;2023-03-14T10:36:17;14.80;99.90
32839;DHT22;19182;41.820;12.808;2023-03-14T10:38:44;14.60;99.90
32839;DHT22;19182;41.820;12.808;2023-03-14T10:41:24;14.60;99.90
32839;DHT22;19182;41.820;12.808;2023-03-14T10:43:53;14.50;99.90
32839;DHT22;19182;41.820;12.808;2023-03-14T10:46:23;14.50;99.90
32839;DHT22;19182;41.820;12.808;2023-03-14T10:48:49;14.60;99.90
32839;DHT22;19182;41.820;12.808;2023-03-14T10:54:00;14.40;99.90
32839;DHT22;19182;41.820;12.808;2023-03-14T10:56:35;14.30;99.90
32839;DHT22;19182;41.820;12.808;2023-03-14T10:59:06;14.20;99.90
32839;DHT22;19182;41.820;12.808;2023-03-14T11:04:46;14.00;99.90
32839;DHT22;19182;41.820;12.808;2023-03-14T11:07:33;14.00;99.90
32839;DHT22;19182;41.820;12.808;2023-03-14T11:13:16;13.90;99.90
32839;DHT22;19182;41.820;12.808;2023-03-14T11:26:59;13.60;99.90
32839;DHT22;19182;41.820;12.808;2023-03-14T11:32:02;13.30;99.90
32839;DHT22;19182;41.820;12.808;2023-03-14T11:34:55;13.40;99.90
32839;DHT22;19182;41.820;12.808;2023-03-14T11:37:39;13.40;99.90
32839;DHT22;19182;41.820;12.808;2023-03-14T11:42:45;13.10;99.90
32839;DHT22;19182;41.820;12.808;2023-03-14T11:45:18;12.90;99.90
32839;DHT22;19182;41.820;12.808;2023-03-14T11:47:46;12.80;99.90
32839;DHT22;19182;41.820;12.808;2023-03-14T11:52:57;12.60;99.90
32839;DHT22;19182;41.820;12.808;2023-03-14T11:55:35;12.60;99.90
32839;DHT22;19182;41.820;12.808;2023-03-14T11:58:20;12.50;99.90
32839;DHT22;19182;41.820;12.808;2023-03-14T12:00:49;12.30;99.90
32839;DHT22;19182;41.820;12.808;2023-03-14T12:03:35;12.30;99.90
32839;DHT22;19182;41.820;12.808;2023-03-14T12:06:24;12.20;99.90
32839;DHT22;19182;41.820;12.808;2023-03-14T12:08:56;12.10;99.90
32839;DHT22;19182;41.820;12.808;2023-03-14T12:14:20;12.10;99.90
32839;DHT22;19182;41.820;12.808;2023-03-14T12:16:47;12.10;99.90
32839;DHT22;19182;41.820;12.808;2023-03-14T12:22:13;9.00;99.90
32839;DHT22;19182;41.820;12.808;2023-03-14T12:24:48;12.10;99.90
32839;DHT22;19182;41.820;12.808;2023-03-14T12:27:43;12.10;99.90
32839;DHT22;19182;41.820;12.808;2023-03-14T12:30:23;12.10;99.90
32839;DHT22;19182;41.820;12.808;2023-03-14T12:43:35;12.00;99.90
32839;DHT22;19182;41.820;12.808;2023-03-14T12:49:10;14.00;99.90
32839;DHT22;19182;41.820;12.808;2023-03-14T12:51:43;12.20;99.90
32839;DHT22;19182;41.820;12.808;2023-03-14T12:54:39;12.10;99.90
32839;DHT22;19182;41.820;12.808;2023-03-14T12:57:33;12.10;99.90
32839;DHT22;19182;41.820;12.808;2023-03-14T13:00:18;12.00;99.90
32839;DHT22;19182;41.820;12.808;2023-03-14T13:02:45;12.10;99.90
32839;DHT22;19182;41.820;12.808;2023-03-14T13:05:20;10.50;99.90
32839;DHT22;19182;41.820;12.808;2023-03-14T13:10:27;12.10;99.90
32839;DHT22;19182;41.820;12.808;2023-03-14T13:13:23;12.20;99.90
32839;DHT22;19182;41.820;12.808;2023-03-14T13:15:59;12.20;99.90
32839;DHT22;19182;41.820;12.808;2023-03-14T13:18:44;12.30;99.90
32839;DHT22;19182;41.820;12.808;2023-03-14T13:21:19;12.30;99.90
32839;DHT22;19182;41.820;12.808;2023-03-14T13:26:21;12.30;99.90
32839;DHT22;19182;41.820;12.808;2023-03-14T13:28:48;12.30;99.90
32839;DHT22;19182;41.820;12.808;2023-03-14T13:31:25;12.30;99.90
32839;DHT22;19182;41.820;12.808;2023-03-14T13:34:02;12.30;99.90
32839;DHT22;19182;41.820;12.808;2023-03-14T13:36:29;12.20;99.90
32839;DHT22;19182;41.820;12.808;2023-03-14T13:39:00;12.30;99.90
32839;DHT22;19182;41.820;12.808;2023-03-14T13:41:27;12.20;99.90
32839;DHT22;19182;41.820;12.808;2023-03-14T13:44:08;12.30;99.90
32839;DHT22;19182;41.820;12.808;2023-03-14T13:46:35;12.30;99.90
32839;DHT22;19182;41.820;12.808;2023-03-14T13:49:05;12.20;99.90
32839;DHT22;19182;41.820;12.808;2023-03-14T13:51:32;12.40;99.90
32839;DHT22;19182;41.820;12.808;2023-03-14T13:54:01;12.40;99.90
32839;DHT22;19182;41.820;12.808;2023-03-14T13:56:31;12.30;99.90
32839;DHT22;19182;41.820;12.808;2023-03-14T13:58:58;12.40;99.90
32839;DHT22;19182;41.820;12.808;2023-03-14T14:01:24;12.30;99.90
32839;DHT22;19182;41.820;12.808;2023-03-14T14:03:52;12.40;99.90
32839;DHT22;19182;41.820;12.808;2023-03-14T14:06:38;12.40;99.90
32839;DHT22;19182;41.820;12.808;2023-03-14T14:09:14;12.50;99.90
32839;DHT22;19182;41.820;12.808;2023-03-14T14:11:59;12.50;99.90
32839;DHT22;19182;41.820;12.808;2023-03-14T14:16:57;12.30;99.90
32839;DHT22;19182;41.820;12.808;2023-03-14T14:19:25;12.40;99.90
32839;DHT22;19182;41.820;12.808;2023-03-14T14:21:54;12.30;99.90
32839;DHT22;19182;41.820;12.808;2023-03-14T14:24:23;12.40;99.90
32839;DHT22;19182;41.820;12.808;2023-03-14T14:26:57;12.40;99.90
32839;DHT22;19182;41.820;12.808;2023-03-14T14:29:41;12.40;99.90
32839;DHT22;19182;41.820;12.808;2023-03-14T14:34:59;12.20;99.90
32839;DHT22;19182;41.820;12.808;2023-03-14T14:39:55;12.20;99.90
32839;DHT22;19182;41.820;12.808;2023-03-14T14:42:28;12.20;99.90
32839;DHT22;19182;41.820;12.808;2023-03-14T14:44:56;12.10;99.90
32839;DHT22;19182;41.820;12.808;2023-03-14T14:47:24;12.00;99.90
32839;DHT22;19182;41.820;12.808;2023-03-14T14:49:53;12.10;99.90
32839;DHT22;19182;41.820;12.808;2023-03-14T14:52:33;12.00;99.90
32839;DHT22;19182;41.820;12.808;2023-03-14T14:55:00;12.10;99.90
32839;DHT22;19182;41.820;12.808;2023-03-14T14:57:39;12.00;99.90
32839;DHT22;19182;41.820;12.808;2023-03-14T15:00:10;12.10;99.90
32839;DHT22;19182;41.820;12.808;2023-03-14T15:02:49;11.90;99.90
32839;DHT22;19182;41.820;12.808;2023-03-14T15:05:18;11.90;99.90
32839;DHT22;19182;41.820;12.808;2023-03-14T15:07:55;11.80;99.90
32839;DHT22;19182;41.820;12.808;2023-03-14T15:10:24;11.80;99.90
32839;DHT22;19182;41.820;12.808;2023-03-14T15:12:50;11.80;99.90
32839;DHT22;19182;41.820;12.808;2023-03-14T15:15:17;11.80;99.90
32839;DHT22;19182;41.820;12.808;2023-03-14T15:17:43;11.90;99.90
32839;DHT22;19182;41.820;12.808;2023-03-14T15:20:24;11.80;99.90
32839;DHT22;19182;41.820;12.808;2023-03-14T15:22:50;11.90;99.90
32839;DHT22;19182;41.820;12.808;2023-03-14T15:25:17;11.90;99.90
32839;DHT22;19182;41.820;12.808;2023-03-14T15:27:43;11.90;99.90
32839;DHT22;19182;41.820;12.808;2023-03-14T15:30:14;11.80;99.90
32839;DHT22;19182;41.820;12.808;2023-03-14T15:32:40;11.70;99.90
32839;DHT22;19182;41.820;12.808;2023-03-14T15:35:06;11.70;99.90
32839;DHT22;19182;41.820;12.808;2023-03-14T15:37:33;11.60;99.90
32839;DHT22;19182;41.820;12.808;2023-03-14T15:39:58;11.60;99.90
32839;DHT22;19182;41.820;12.808;2023-03-14T15:42:24;11.60;99.90
32839;DHT22;19182;41.820;12.808;2023-03-14T15:44:51;11.60;99.90
32839;DHT22;19182;41.820;12.808;2023-03-14T15:47:16;11.60;99.90
32839;DHT22;19182;41.820;12.808;2023-03-14T15:49:43;11.50;99.90
32839;DHT22;19182;41.820;12.808;2023-03-14T15:52:09;11.50;99.90
32839;DHT22;19182;41.820;12.808;2023-03-14T15:54:35;11.50;99.90
32839;DHT22;19182;41.820;12.808;2023-03-14T15:57:09;11.50;99.90
32839;DHT22;19182;41.820;12.808;2023-03-14T15:59:35;11.40;99.90
32839;DHT22;19182;41.820;12.808;2023-03-14T16:02:01;11.40;99.90
32839;DHT22;19182;41.820;12.808;2023-03-14T16:04:27;11.30;99.90
32839;DHT22;19182;41.820;12.808;2023-03-14T16:06:53;11.30;99.90
32839;DHT22;19182;41.820;12.808;2023-03-14T16:09:19;11.30;99.90
32839;DHT22;19182;41.820;12.808;2023-03-14T16:14:13;11.40;99.90
32839;DHT22;19182;41.820;12.808;2023-03-14T16:16:39;11.40;99.90
32839;DHT22;19182;41.820;12.808;2023-03-14T16:19:10;11.40;99.90
32839;DHT22;19182;41.820;12.808;2023-03-14T16:21:37;11.40;99.90
32839;DHT22;19182;41.820;12.808;2023-03-14T16:24:03;11.40;99.90
32839;DHT22;19182;41.820;12.808;2023-03-14T16:26:31;11.40;99.90
32839;DHT22;19182;41.820;12.808;2023-03-14T16:29:00;11.40;99.90
32839;DHT22;19182;41.820;12.808;2023-03-14T16:31:26;11.30;99.90
32839;DHT22;19182;41.820;12.808;2023-03-14T16:33:52;11.40;99.90
32839;DHT22;19182;41.820;12.808;2023-03-14T16:36:18;11.20;99.90
32839;DHT22;19182;41.820;12.808;2023-03-14T16:38:45;11.20;99.90
32839;DHT22;19182;41.820;12.808;2023-03-14T16:41:12;11.20;99.90
32839;DHT22;19182;41.820;12.808;2023-03-14T16:43:41;11.20;99.90
32839;DHT22;19182;41.820;12.808;2023-03-14T16:46:14;11.10;99.90
32839;DHT22;19182;41.820;12.808;2023-03-14T16:48:44;11.10;99.90
32839;DHT22;19182;41.820;12.808;2023-03-14T16:51:13;11.00;99.90
32839;DHT22;19182;41.820;12.808;2023-03-14T16:53:41;11.10;99.90
32839;DHT22;19182;41.820;12.808;2023-03-14T16:56:08;11.10;99.90
32839;DHT22;19182;41.820;12.808;2023-03-14T16:58:37;11.10;99.90
32839;DHT22;19182;41.820;12.808;2023-03-14T17:01:06;10.90;99.90